createdAt,value
2022-12-07T00:01:10.986Z,2.93
2022-12-07T00:03:39.929Z,3.80
2022-12-07T00:06:08.816Z,3.57
2022-12-07T00:08:37.920Z,3.43
2022-12-07T00:11:07.627Z,4.00
2022-12-07T00:13:36.781Z,3.73
2022-12-07T00:16:06.496Z,3.27
2022-12-07T00:18:36.189Z,4.13
2022-12-07T00:21:04.158Z,3.53
2022-12-07T00:23:32.496Z,3.97
2022-12-07T00:26:06.296Z,4.90
2022-12-07T00:28:35.043Z,4.30
2022-12-07T00:31:04.756Z,3.97
2022-12-07T00:33:33.269Z,4.90
2022-12-07T00:36:03.717Z,3.70
2022-12-07T00:38:33.075Z,4.97
2022-12-07T00:41:02.527Z,5.00
2022-12-07T00:43:31.678Z,3.70
2022-12-07T00:46:00.002Z,4.43
2022-12-07T00:48:28.392Z,4.37
2022-12-07T00:50:56.103Z,4.80
2022-12-07T00:53:26.099Z,4.50
2022-12-07T00:55:54.472Z,4.50
2022-12-07T00:58:22.099Z,3.70
2022-12-07T01:00:49.822Z,4.87
2022-12-07T01:03:18.567Z,4.10
2022-12-07T01:05:54.205Z,4.23
2022-12-07T01:08:22.485Z,5.23
2022-12-07T01:10:58.884Z,4.30
2022-12-07T01:13:26.616Z,4.30
2022-12-07T01:15:58.137Z,4.50
2022-12-07T01:18:26.130Z,3.93
2022-12-07T01:21:00.353Z,3.30
2022-12-07T01:23:28.208Z,4.23
2022-12-07T01:25:58.728Z,3.63
2022-12-07T01:28:26.642Z,4.67
2022-12-07T01:30:59.279Z,3.63
2022-12-07T01:33:29.544Z,3.50
2022-12-07T01:36:02.882Z,4.03
2022-12-07T01:38:31.474Z,3.70
2022-12-07T01:41:01.951Z,5.00
2022-12-07T01:43:32.215Z,3.70
2022-12-07T01:46:01.476Z,5.33
2022-12-07T01:48:32.545Z,3.40
2022-12-07T01:51:06.342Z,3.83
2022-12-07T01:53:38.036Z,3.57
2022-12-07T01:56:10.577Z,4.07
2022-12-07T01:58:39.203Z,3.87
2022-12-07T02:01:07.207Z,3.53
2022-12-07T02:03:40.763Z,4.53
2022-12-07T02:06:10.141Z,4.43
2022-12-07T02:08:38.097Z,3.70
2022-12-07T02:11:09.681Z,3.20
2022-12-07T02:13:40.461Z,3.13
2022-12-07T02:16:18.116Z,3.47
2022-12-07T02:19:02.699Z,4.57
2022-12-07T02:21:40.222Z,4.77
2022-12-07T02:24:17.031Z,3.43
2022-12-07T02:27:16.663Z,3.97
2022-12-07T02:29:51.987Z,3.80
2022-12-07T02:32:26.815Z,3.63
2022-12-07T02:35:00.736Z,4.33
2022-12-07T02:37:38.998Z,3.90
2022-12-07T02:40:13.238Z,3.60
2022-12-07T02:42:45.735Z,4.60
2022-12-07T02:45:19.756Z,4.23
2022-12-07T02:47:52.946Z,5.50
2022-12-07T02:50:22.781Z,5.50
2022-12-07T02:52:50.853Z,6.00
2022-12-07T02:55:24.295Z,5.43
2022-12-07T02:58:05.419Z,3.93
2022-12-07T03:00:44.016Z,4.90
2022-12-07T03:03:14.428Z,5.47
2022-12-07T03:06:02.018Z,5.33
2022-12-07T03:08:37.800Z,5.37
2022-12-07T03:11:08.763Z,3.80
2022-12-07T03:13:44.128Z,4.97
2022-12-07T03:16:18.038Z,5.97
2022-12-07T03:18:51.951Z,4.70
2022-12-07T03:21:25.593Z,5.77
2022-12-07T03:23:58.105Z,5.17
2022-12-07T03:26:33.783Z,4.87
2022-12-07T03:29:09.879Z,6.77
2022-12-07T03:31:43.341Z,4.57
2022-12-07T03:34:17.064Z,5.93
2022-12-07T03:36:52.780Z,4.60
2022-12-07T03:39:26.272Z,5.37
2022-12-07T03:41:54.918Z,4.73
2022-12-07T03:44:24.118Z,4.63
2022-12-07T03:47:03.902Z,6.07
2022-12-07T03:49:39.552Z,4.87
2022-12-07T03:52:14.677Z,4.10
2022-12-07T03:54:49.947Z,5.17
2022-12-07T04:00:09.117Z,3.93
2022-12-07T04:02:45.206Z,4.77
2022-12-07T04:05:13.805Z,5.23
2022-12-07T04:07:42.620Z,4.83
2022-12-07T04:10:11.450Z,5.53
2022-12-07T04:12:39.685Z,4.63
2022-12-07T04:15:08.663Z,5.77
2022-12-07T04:17:37.135Z,5.90
2022-12-07T04:20:08.393Z,4.83
2022-12-07T04:22:36.771Z,6.40
2022-12-07T04:25:04.817Z,5.10
2022-12-07T04:27:33.396Z,5.43
2022-12-07T04:30:01.439Z,4.57
2022-12-07T04:32:30.100Z,5.03
2022-12-07T04:34:57.762Z,5.87
2022-12-07T04:37:27.461Z,5.77
2022-12-07T04:39:55.108Z,5.93
2022-12-07T04:42:23.241Z,5.40
2022-12-07T04:44:51.842Z,5.53
2022-12-07T04:47:19.830Z,4.87
2022-12-07T04:49:47.459Z,6.13
2022-12-07T04:52:15.101Z,5.87
2022-12-07T04:54:44.148Z,5.33
2022-12-07T04:57:11.985Z,4.77
2022-12-07T04:59:45.095Z,6.33
2022-12-07T05:02:13.792Z,6.03
2022-12-07T05:04:41.447Z,5.43
2022-12-07T05:07:09.117Z,5.07
2022-12-07T05:09:36.742Z,5.73
2022-12-07T05:12:07.212Z,4.40
2022-12-07T05:14:34.904Z,5.10
2022-12-07T05:17:02.968Z,5.50
2022-12-07T05:19:31.479Z,6.53
2022-12-07T05:21:59.141Z,4.40
2022-12-07T05:24:26.782Z,6.37
2022-12-07T05:26:56.283Z,5.60
2022-12-07T05:29:25.260Z,5.43
2022-12-07T05:31:53.186Z,5.27
2022-12-07T05:34:20.887Z,5.30
2022-12-07T05:36:48.516Z,6.83
2022-12-07T05:39:16.540Z,6.60
2022-12-07T05:42:02.159Z,5.43
2022-12-07T05:44:31.835Z,4.87
2022-12-07T05:46:59.480Z,5.27
2022-12-07T05:49:27.716Z,4.23
2022-12-07T05:51:55.343Z,5.30
2022-12-07T05:54:23.363Z,4.57
2022-12-07T05:56:50.991Z,5.70
2022-12-07T05:59:23.972Z,6.63
2022-12-07T06:01:54.179Z,5.23
2022-12-07T06:04:23.492Z,6.03
2022-12-07T06:06:51.497Z,5.33
2022-12-07T06:09:20.252Z,4.90
2022-12-07T06:12:05.808Z,5.30
2022-12-07T06:14:33.706Z,5.47
2022-12-07T06:17:02.885Z,5.40
2022-12-07T06:19:31.531Z,6.33
2022-12-07T06:21:59.911Z,4.90
2022-12-07T06:24:27.973Z,6.00
2022-12-07T06:26:55.716Z,5.83
2022-12-07T06:29:23.697Z,6.67
2022-12-07T06:31:51.503Z,6.37
2022-12-07T06:34:23.630Z,8.03
2022-12-07T06:36:52.637Z,7.30
2022-12-07T06:39:21.493Z,6.60
2022-12-07T06:41:49.482Z,6.30
2022-12-07T06:44:17.475Z,8.00
2022-12-07T06:46:45.100Z,7.00
2022-12-07T06:49:13.506Z,6.53
2022-12-07T06:51:43.011Z,6.97
2022-12-07T06:54:11.974Z,7.67
2022-12-07T06:56:40.023Z,7.67
2022-12-07T06:59:08.680Z,8.07
2022-12-07T07:01:37.334Z,8.47
2022-12-07T07:04:05.565Z,6.70
2022-12-07T07:06:33.482Z,6.57
2022-12-07T07:09:02.849Z,7.77
2022-12-07T07:11:30.544Z,8.13
2022-12-07T07:14:03.411Z,7.23
2022-12-07T07:16:32.431Z,7.10
2022-12-07T07:19:00.231Z,8.10
2022-12-07T07:21:28.868Z,6.63
2022-12-07T07:23:57.367Z,8.10
2022-12-07T07:26:26.429Z,8.47
2022-12-07T07:28:54.053Z,8.47
2022-12-07T07:31:22.392Z,8.33
2022-12-07T07:33:50.117Z,7.43
2022-12-07T07:36:18.131Z,7.73
2022-12-07T07:38:45.769Z,8.30
2022-12-07T07:41:13.383Z,6.97
2022-12-07T07:43:42.357Z,8.03
2022-12-07T07:46:10.357Z,7.70
2022-12-07T07:48:38.032Z,10.53
2022-12-07T07:51:08.064Z,11.37
2022-12-07T07:53:35.815Z,8.43
2022-12-07T07:56:03.488Z,9.20
2022-12-07T07:58:31.176Z,8.30
2022-12-07T08:01:05.867Z,7.50
2022-12-07T08:03:33.599Z,9.33
2022-12-07T08:06:01.742Z,7.90
2022-12-07T08:08:29.442Z,9.93
2022-12-07T08:10:57.760Z,7.93
2022-12-07T08:13:30.776Z,7.60
2022-12-07T08:16:06.333Z,9.33
2022-12-07T08:18:37.307Z,7.67
2022-12-07T08:21:05.948Z,10.40
2022-12-07T08:23:39.415Z,9.57
2022-12-07T08:26:10.486Z,9.10
2022-12-07T08:28:38.507Z,8.87
2022-12-07T08:31:10.463Z,9.23
2022-12-07T08:33:38.461Z,8.53
2022-12-07T08:36:09.415Z,8.83
2022-12-07T08:38:37.854Z,10.17
2022-12-07T08:41:06.038Z,8.67
2022-12-07T08:43:34.309Z,7.70
2022-12-07T08:46:09.416Z,9.83
2022-12-07T08:48:41.170Z,8.87
2022-12-07T08:51:09.901Z,8.93
2022-12-07T08:53:40.035Z,10.63
2022-12-07T08:56:09.613Z,9.00
2022-12-07T08:58:39.019Z,9.93
2022-12-07T09:01:08.429Z,7.40
2022-12-07T09:03:36.109Z,9.47
2022-12-07T09:06:03.989Z,9.27
2022-12-07T09:08:35.322Z,8.83
2022-12-07T09:11:03.002Z,7.37
2022-12-07T09:13:30.656Z,7.43
2022-12-07T09:15:58.665Z,7.73
2022-12-07T09:18:27.805Z,7.73
2022-12-07T09:20:55.825Z,8.70
2022-12-07T09:23:23.444Z,8.03
2022-12-07T09:25:51.741Z,7.60
2022-12-07T09:28:19.379Z,8.03
2022-12-07T09:31:21.538Z,7.63
2022-12-07T09:33:37.457Z,6.27
2022-12-07T09:36:06.301Z,6.77
2022-12-07T09:38:33.966Z,6.27
2022-12-07T09:41:07.121Z,6.93
2022-12-07T09:43:37.239Z,7.00
2022-12-07T09:46:06.163Z,6.37
2022-12-07T09:48:37.615Z,7.37
2022-12-07T09:51:22.711Z,7.13
2022-12-07T09:53:52.491Z,6.90
2022-12-07T09:56:21.990Z,6.57
2022-12-07T09:58:51.391Z,6.70
2022-12-07T10:01:21.431Z,7.50
2022-12-07T10:03:52.225Z,5.83
2022-12-07T10:06:21.671Z,7.20
2022-12-07T10:08:49.451Z,6.50
2022-12-07T10:11:17.664Z,5.93
2022-12-07T10:13:50.136Z,5.20
2022-12-07T10:16:40.686Z,5.53
2022-12-07T10:19:25.368Z,4.23
2022-12-07T10:22:12.699Z,4.53
2022-12-07T10:24:43.295Z,4.53
2022-12-07T10:27:21.879Z,4.77
2022-12-07T10:29:52.439Z,4.93
2022-12-07T10:32:34.207Z,3.87
2022-12-07T10:35:23.883Z,4.57
2022-12-07T10:37:54.490Z,5.50
2022-12-07T10:40:29.022Z,5.20
2022-12-07T10:43:03.620Z,6.40
2022-12-07T10:45:31.387Z,5.40
2022-12-07T10:48:08.640Z,4.50
2022-12-07T10:50:54.695Z,4.47
2022-12-07T10:53:46.606Z,5.07
2022-12-07T10:56:33.991Z,4.57
2022-12-07T10:59:19.595Z,4.77
2022-12-07T11:01:53.721Z,5.43
2022-12-07T11:04:32.243Z,5.37
2022-12-07T11:07:07.192Z,5.10
2022-12-07T11:10:08.487Z,4.73
2022-12-07T11:12:51.368Z,4.53
2022-12-07T11:15:23.216Z,5.03
2022-12-07T11:17:58.704Z,4.80
2022-12-07T11:20:41.257Z,5.63
2022-12-07T11:23:20.842Z,3.77
2022-12-07T11:25:59.717Z,4.13
2022-12-07T11:28:42.812Z,4.73
2022-12-07T11:31:16.955Z,3.47
2022-12-07T11:33:49.485Z,4.40
2022-12-07T11:36:34.037Z,4.03
2022-12-07T11:39:06.530Z,4.10
2022-12-07T11:41:39.726Z,4.23
2022-12-07T11:44:09.581Z,4.23
2022-12-07T11:46:51.842Z,3.03
2022-12-07T11:49:25.819Z,4.30
2022-12-07T11:51:57.221Z,3.70
2022-12-07T11:54:30.625Z,4.20
2022-12-07T11:57:05.722Z,4.20
2022-12-07T11:59:38.608Z,5.43
2022-12-07T12:02:15.720Z,4.70
2022-12-07T12:04:53.159Z,4.63
2022-12-07T12:10:22.691Z,4.33
2022-12-07T12:16:38.531Z,4.43
2022-12-07T12:19:21.253Z,4.03
2022-12-07T12:21:55.502Z,4.73
2022-12-07T12:24:29.187Z,4.80
2022-12-07T12:27:03.647Z,4.03
2022-12-07T12:29:36.965Z,4.60
2022-12-07T12:32:15.576Z,3.60
2022-12-07T12:34:59.379Z,4.20
2022-12-07T12:37:46.448Z,3.80
2022-12-07T12:40:54.224Z,4.73
2022-12-07T12:43:54.437Z,3.47
2022-12-07T12:46:58.231Z,4.07
2022-12-07T12:50:05.038Z,3.47
2022-12-07T12:52:53.313Z,4.70
2022-12-07T12:55:31.354Z,5.10
2022-12-07T12:58:34.673Z,3.93
2022-12-07T13:01:41.104Z,4.17
2022-12-07T13:04:52.933Z,3.50
2022-12-07T13:08:02.459Z,4.50
2022-12-07T13:10:50.088Z,4.67
2022-12-07T13:13:37.865Z,3.33
2022-12-07T13:16:41.710Z,4.13
2022-12-07T13:19:48.944Z,4.60
2022-12-07T13:22:43.052Z,3.37
2022-12-07T13:25:14.418Z,4.43
2022-12-07T13:27:45.964Z,3.97
2022-12-07T13:30:17.289Z,3.33
2022-12-07T13:32:52.919Z,5.10
2022-12-07T13:35:32.082Z,3.57
2022-12-07T13:38:03.849Z,3.47
2022-12-07T13:43:19.581Z,4.40
2022-12-07T13:45:58.971Z,4.23
2022-12-07T13:48:33.315Z,4.50
2022-12-07T13:51:03.315Z,3.97
2022-12-07T13:53:32.380Z,4.00
2022-12-07T13:56:01.908Z,4.17
2022-12-07T13:58:33.246Z,4.07
2022-12-07T14:01:01.753Z,5.17
2022-12-07T14:03:32.673Z,3.90
2022-12-07T14:06:28.006Z,4.07
2022-12-07T14:09:17.156Z,3.67
2022-12-07T14:11:44.792Z,4.50
2022-12-07T14:14:18.401Z,4.20
2022-12-07T14:17:00.878Z,4.53
2022-12-07T14:19:48.514Z,4.83
2022-12-07T14:22:39.023Z,3.83
2022-12-07T14:25:23.002Z,5.00
2022-12-07T14:27:56.711Z,5.30
2022-12-07T14:30:27.131Z,4.73
2022-12-07T14:32:58.271Z,5.27
2022-12-07T14:35:26.006Z,5.37
2022-12-07T14:37:53.671Z,4.37
2022-12-07T14:40:25.880Z,4.27
2022-12-07T14:42:56.945Z,4.03
2022-12-07T14:45:25.337Z,3.43
2022-12-07T14:53:37.594Z,3.77
2022-12-07T14:56:07.867Z,3.53
2022-12-07T14:58:35.540Z,3.67
2022-12-07T15:01:04.383Z,5.37
2022-12-07T15:03:32.143Z,3.57
2022-12-07T15:06:00.199Z,4.10
2022-12-07T15:08:27.987Z,2.87
2022-12-07T15:10:55.724Z,4.07
2022-12-07T15:13:42.497Z,2.60
2022-12-07T15:16:12.815Z,3.40
2022-12-07T15:18:48.618Z,3.37
2022-12-07T15:21:21.088Z,4.93
2022-12-07T15:23:49.148Z,4.00
2022-12-07T15:26:17.104Z,3.27
2022-12-07T15:28:46.063Z,4.83
2022-12-07T15:31:46.583Z,3.87
2022-12-07T15:34:02.140Z,3.37
2022-12-07T15:36:33.051Z,3.43
2022-12-07T15:39:16.117Z,2.10
2022-12-07T15:41:44.186Z,3.73
2022-12-07T15:44:32.460Z,5.40
2022-12-07T15:47:00.592Z,5.27
2022-12-07T15:49:29.099Z,5.43
2022-12-07T15:51:57.746Z,4.87
2022-12-07T15:54:26.454Z,7.33
2022-12-07T15:56:55.003Z,5.23
2022-12-07T15:59:24.661Z,5.60
2022-12-07T16:01:53.259Z,6.40
2022-12-07T16:04:21.203Z,5.70
2022-12-07T16:06:49.492Z,5.23
2022-12-07T16:09:17.127Z,4.10
2022-12-07T16:11:44.958Z,4.87
2022-12-07T16:14:12.592Z,5.00
2022-12-07T16:16:43.010Z,4.53
2022-12-07T16:19:11.828Z,4.60
2022-12-07T16:21:39.828Z,5.57
2022-12-07T16:24:08.579Z,4.97
2022-12-07T16:26:36.444Z,5.10
2022-12-07T16:29:04.659Z,5.13
2022-12-07T16:31:32.800Z,4.37
2022-12-07T16:34:01.843Z,4.70
2022-12-07T16:39:19.578Z,5.70
2022-12-07T16:41:47.897Z,4.93
2022-12-07T16:44:15.970Z,5.83
2022-12-07T16:46:44.725Z,5.27
2022-12-07T16:49:15.837Z,5.20
2022-12-07T16:51:44.038Z,3.37
2022-12-07T16:54:13.167Z,5.30
2022-12-07T16:56:41.147Z,4.53
2022-12-07T16:59:09.587Z,5.10
2022-12-07T17:01:37.651Z,4.00
2022-12-07T17:04:06.172Z,3.63
2022-12-07T17:06:35.275Z,4.10
2022-12-07T17:09:05.311Z,5.43
2022-12-07T17:11:33.317Z,4.07
2022-12-07T17:14:24.386Z,3.80
2022-12-07T17:16:52.010Z,4.20
2022-12-07T17:19:19.744Z,4.00
2022-12-07T17:21:49.624Z,4.50
2022-12-07T17:24:18.137Z,4.50
2022-12-07T17:26:47.162Z,4.87
2022-12-07T17:29:16.798Z,4.67
2022-12-07T17:31:49.508Z,5.77
2022-12-07T17:34:19.969Z,5.20
2022-12-07T17:36:48.997Z,5.63
2022-12-07T17:39:20.124Z,5.97
2022-12-07T17:42:06.022Z,8.87
2022-12-07T17:44:34.715Z,8.47
2022-12-07T17:47:04.148Z,6.93
2022-12-07T17:49:32.340Z,6.60
2022-12-07T17:52:18.876Z,7.83
2022-12-07T17:54:46.519Z,4.97
2022-12-07T17:57:14.216Z,6.70
2022-12-07T17:59:42.611Z,7.03
2022-12-07T18:02:11.553Z,6.60
2022-12-07T18:04:40.085Z,6.60
2022-12-07T18:07:09.207Z,6.53
2022-12-07T18:09:37.156Z,7.90
2022-12-07T18:12:05.380Z,6.37
2022-12-07T18:14:33.177Z,7.10
2022-12-07T18:17:00.856Z,7.17
2022-12-07T18:19:28.605Z,7.50
2022-12-07T18:21:56.249Z,7.90
2022-12-07T18:24:25.640Z,7.53
2022-12-07T18:26:53.288Z,6.93
2022-12-07T18:29:21.421Z,7.77
2022-12-07T18:31:49.255Z,5.30
2022-12-07T18:34:19.572Z,8.07
2022-12-07T18:36:50.304Z,5.27
2022-12-07T18:39:20.004Z,6.33
2022-12-07T18:41:49.484Z,6.93
2022-12-07T18:44:17.551Z,6.63
2022-12-07T18:46:45.252Z,6.27
2022-12-07T18:49:14.376Z,6.93
2022-12-07T18:51:42.198Z,5.80
2022-12-07T18:54:10.408Z,5.43
2022-12-07T18:56:38.293Z,6.87
2022-12-07T18:59:25.146Z,9.83
2022-12-07T19:01:54.478Z,9.33
2022-12-07T19:04:22.760Z,9.77
2022-12-07T19:06:51.115Z,8.43
2022-12-07T19:09:19.873Z,8.57
2022-12-07T19:11:51.163Z,9.57
2022-12-07T19:14:24.885Z,8.87
2022-12-07T19:16:55.113Z,10.53
2022-12-07T19:19:26.223Z,9.93
2022-12-07T19:21:55.551Z,7.53
2022-12-07T19:24:24.121Z,7.03
2022-12-07T19:26:52.011Z,6.43
2022-12-07T19:29:21.457Z,6.20
2022-12-07T19:31:49.487Z,6.17
2022-12-07T19:34:18.547Z,6.50
2022-12-07T19:36:47.476Z,5.30
2022-12-07T19:39:16.248Z,6.47
2022-12-07T19:41:46.307Z,6.70
2022-12-07T19:44:15.843Z,6.53
2022-12-07T19:46:47.506Z,7.87
2022-12-07T19:49:16.261Z,6.07
2022-12-07T19:51:45.297Z,6.40
2022-12-07T19:54:14.968Z,7.27
2022-12-07T19:56:44.033Z,7.47
2022-12-07T19:59:12.764Z,6.43
2022-12-07T20:01:42.265Z,8.13
2022-12-07T20:04:13.958Z,7.90
2022-12-07T20:06:41.799Z,7.33
2022-12-07T20:09:10.296Z,6.63
2022-12-07T20:11:56.051Z,5.53
2022-12-07T20:14:24.264Z,8.23
2022-12-07T20:16:52.105Z,9.53
2022-12-07T20:19:21.568Z,6.00
2022-12-07T20:21:50.978Z,6.50
2022-12-07T20:24:20.777Z,7.17
2022-12-07T20:26:50.268Z,7.60
2022-12-07T20:29:20.174Z,7.13
2022-12-07T20:31:49.408Z,6.07
2022-12-07T20:34:17.313Z,6.83
2022-12-07T20:36:46.788Z,6.17
2022-12-07T20:39:15.173Z,6.70
2022-12-07T20:42:00.789Z,7.53
2022-12-07T20:44:28.961Z,7.37
2022-12-07T20:46:56.615Z,6.70
2022-12-07T20:49:24.310Z,8.47
2022-12-07T20:51:53.717Z,10.27
2022-12-07T20:54:21.379Z,10.33
2022-12-07T20:56:49.049Z,10.03
2022-12-07T20:59:17.242Z,10.87
2022-12-07T21:01:46.100Z,16.47
2022-12-07T21:04:15.012Z,18.40
2022-12-07T21:06:43.739Z,19.03
2022-12-07T21:09:13.024Z,18.30
2022-12-07T21:11:41.409Z,11.00
2022-12-07T21:14:09.649Z,7.07
2022-12-07T21:16:37.569Z,7.53
2022-12-07T21:19:06.121Z,8.43
2022-12-07T21:21:35.454Z,7.87
2022-12-07T21:24:05.484Z,8.73
2022-12-07T21:26:36.433Z,7.67
2022-12-07T21:29:05.388Z,9.07
2022-12-07T21:31:34.173Z,8.03
2022-12-07T21:34:03.716Z,7.27
2022-12-07T21:36:31.926Z,9.03
2022-12-07T21:39:00.093Z,10.20
2022-12-07T21:41:29.657Z,10.47
2022-12-07T21:43:59.540Z,9.40
2022-12-07T21:46:34.145Z,12.00
2022-12-07T21:49:04.532Z,9.90
2022-12-07T21:51:32.788Z,11.40
2022-12-07T21:54:01.820Z,9.23
2022-12-07T21:56:32.661Z,11.73
2022-12-07T21:59:04.588Z,9.20
2022-12-07T22:01:38.382Z,9.90
2022-12-07T22:04:07.521Z,10.30
2022-12-07T22:06:36.894Z,11.53
2022-12-07T22:09:06.341Z,10.60
2022-12-07T22:11:34.307Z,10.97
2022-12-07T22:14:30.021Z,8.83
2022-12-07T22:16:59.079Z,9.67
2022-12-07T22:19:27.535Z,10.40
2022-12-07T22:21:55.368Z,11.67
2022-12-07T22:24:23.327Z,9.57
2022-12-07T22:26:51.378Z,9.33
2022-12-07T22:29:20.876Z,8.73
2022-12-07T22:31:53.462Z,9.57
2022-12-07T22:34:22.005Z,10.40
2022-12-07T22:36:49.640Z,10.40
2022-12-07T22:39:17.532Z,10.47
2022-12-07T22:41:45.713Z,10.17
2022-12-07T22:44:14.410Z,9.23
2022-12-07T22:46:44.160Z,8.53
2022-12-07T22:49:11.960Z,8.97
2022-12-07T22:51:41.800Z,7.17
2022-12-07T22:54:15.053Z,10.07
2022-12-07T22:56:42.765Z,9.93
2022-12-07T22:59:12.262Z,12.17
2022-12-07T23:01:39.965Z,7.50
2022-12-07T23:04:09.608Z,9.60
2022-12-07T23:06:37.383Z,9.07
2022-12-07T23:09:07.720Z,9.20
2022-12-07T23:11:56.829Z,10.20
2022-12-07T23:14:27.268Z,10.20
2022-12-07T23:16:54.918Z,9.17
2022-12-07T23:19:24.150Z,8.83
2022-12-07T23:21:52.204Z,8.40
2022-12-07T23:24:20.299Z,8.93
2022-12-07T23:26:48.429Z,8.47
2022-12-07T23:29:18.029Z,9.50
2022-12-07T23:31:46.628Z,9.37
2022-12-07T23:34:14.958Z,7.50
2022-12-07T23:36:44.017Z,8.23
2022-12-07T23:39:12.917Z,8.60
2022-12-07T23:41:41.316Z,7.80
2022-12-07T23:44:09.243Z,9.80
2022-12-07T23:46:36.889Z,10.17
2022-12-07T23:49:06.361Z,9.40
2022-12-07T23:51:35.014Z,9.23
2022-12-07T23:54:05.219Z,9.80
2022-12-07T23:56:34.919Z,9.00
2022-12-07T23:59:03.460Z,7.70
